Latest Weather Observations for Thredbo Top Station

IDN60901

Issued at 3:21 pm EST Tuesday 29 September 2020 (issued every 10 minutes, with the page automatically refreshed every 10 minutes)

About weather observations | Map of Canberra area stations | Latest observations for Canberra area | Other Formats
Station Details ID: 071032 Name: THREDBO AWS Lat: -36.49 Lon: 148.29 Height: 1957.0 m
Data from the previous 72 hours. | See also: Recent months at Thredbo Top Station
Date/Time
EST
Temp
°C
App
Temp
°C
Dew
Point
°C
Rel
Hum
%
Delta-T
°C
Wind Press
QNH
hPa
Press
MSL
hPa
Rain since
9am
mm
Dir  Spd
km/h
Gust
km/h
Spd
kts
Gust
kts
29/03:00pm 3.4 -4.0 -3.8 59 2.8 NW 26 35 14 19 1023.1 1024.4 0.0
29/02:30pm 3.5 -4.7 -3.7 59 2.8 NW 30 37 16 20 1023.1 1024.4 0.0
29/02:00pm 3.7 -3.3 -3.8 58 2.9 NW 24 32 13 17 1023.4 1024.6 0.0
29/01:30pm 3.2 -3.8 -3.1 63 2.5 NW 24 30 13 16 1023.9 1025.2 0.0
29/01:00pm 3.2 -3.6 -1.5 71 1.9 NW 24 30 13 16 1024.3 1025.7 0.0
29/12:30pm 4.2 -1.2 -1.4 67 2.3 NW 17 22 9 12 1024.7 1026.0 0.0
29/12:00pm 3.5 -2.4 -1.1 72 1.9 NW 20 26 11 14 1025.0 1026.3 0.0
29/11:30am 1.0 -5.0 -3.3 73 1.7 NW 19 22 10 12 1025.1 1026.4 0.0
29/11:00am 4.4 -0.8 -2.7 60 2.9 NNW 15 19 8 10 1025.4 1026.8 0.0
29/10:30am 1.8 -4.0 -4.3 64 2.4 NW 17 22 9 12 1025.6 1026.9 0.0
29/10:00am 1.4 -5.5 -2.7 74 1.7 NW 24 32 13 17 1025.8 1027.2 0.0
29/09:30am 1.4 -6.1 -1.3 82 1.1 NW 28 37 15 20 1025.8 1027.2 0.0
29/09:00am 1.3 -6.8 0.0 91 0.5 NW 32 41 17 22 1026.2 1027.6 0.0
29/08:30am 1.3 -7.4 -0.2 90 0.6 NW 35 44 19 24 1026.0 1027.4 0.0
29/08:00am 1.2 -6.2 -0.9 86 0.9 NW 28 35 15 19 1025.7 1027.1 0.0
29/07:30am 0.7 -6.9 -2.0 82 1.1 NW 28 37 15 20 1025.6 1026.9 0.0
29/07:00am -0.6 -7.7 -4.6 74 1.4 WNW 24 28 13 15 1025.2 1026.6 0.0
29/06:30am -1.1 -8.3 -5.0 75 1.4 WNW 24 30 13 16 1025.0 1026.3 0.0
29/06:00am -2.1 -9.3 -5.6 77 1.1 WNW 24 30 13 16 1024.7 1026.0 0.0
29/05:30am -2.6 -9.5 -5.9 78 1.0 WNW 22 28 12 15 1024.3 1025.7 0.0
29/05:00am -2.2 -8.6 -5.2 80 1.0 WNW 20 24 11 13 1024.1 1025.4 0.0
29/04:30am -1.7 -8.1 -4.5 81 0.9 WNW 20 30 11 16 1023.9 1025.2 0.0
29/04:00am -1.4 -8.5 -4.1 82 0.9 NW 24 32 13 17 1023.9 1025.2 0.0
29/03:30am -1.4 -8.9 -4.1 82 0.9 NW 26 30 14 16 1024.0 1025.3 0.0
29/03:00am -1.6 -9.1 -4.8 79 1.1 NW 26 28 14 15 1024.2 1025.5 0.0
29/02:30am -0.9 -8.4 -4.6 76 1.3 NW 26 30 14 16 1024.5 1025.8 0.0
29/02:00am -2.9 -7.6 -5.4 83 0.7 NW 11 20 6 11 1025.0 1026.3 0.0
29/01:30am -3.7 -8.6 -7.3 76 1.0 NW 11 13 6 7 1025.4 1026.8 0.0
29/01:00am -3.4 -8.3 -6.8 77 1.0 NW 11 13 6 7 1025.8 1027.2 0.0
29/12:30am -3.8 -7.7 -4.6 94 0.1 WNW 7 9 4 5 1026.0 1027.4 0.0
29/12:00am -3.7 -7.6 -4.5 94 0.1 NW 7 9 4 5 1026.0 1027.4 0.0
 
Date/Time
EST
Temp
°C
App
Temp
°C
Dew
Point
°C
Rel
Hum
%
Delta-T
°C
Wind Press
QNH
hPa
Press
MSL
hPa
Rain since
9am
mm
Dir  Spd
km/h
Gust
km/h
Spd
kts
Gust
kts
28/11:30pm -3.0 -7.2 -4.1 92 0.3 NW 9 13 5 7 1026.2 1027.6 0.0
28/11:00pm -2.9 -8.5 -3.3 97 0.0 NW 17 20 9 11 1026.0 1027.4 0.0
28/10:30pm -2.9 -7.4 -3.3 97 0.0 NW 11 19 6 10 1026.2 1027.6 0.0
28/10:00pm -2.2 -5.9 -2.6 97 0.0 NW 7 11 4 6 1026.4 1027.8 0.0
28/09:30pm -1.7 -5.1 -2.1 97 0.1 NW 6 9 3 5 1026.5 1027.9 0.0
28/09:00pm -1.2 -3.8 -1.6 97 0.1 NNE 2 4 1 2 1026.8 1028.2 0.0
28/08:30pm -0.5 -3.4 -0.9 97 0.1 SSE 4 11 2 6 1026.8 1028.2 0.0
28/08:00pm -0.2 -4.7 -0.6 97 0.2 SW 13 15 7 8 1026.7 1028.1 0.0
28/07:30pm -0.3 -5.3 -1.1 94 0.3 WSW 15 17 8 9 1026.3 1027.7 0.0
28/07:00pm 0.1 -4.6 -1.5 89 0.6 WSW 13 17 7 9 1026.3 1027.7 0.0
28/06:30pm 0.1 -4.7 -2.3 84 0.9 WSW 13 17 7 9 1026.0 1027.4 0.0
28/06:00pm 0.1 -3.8 -1.2 91 0.5 NW 9 15 5 8 1026.0 1027.4 0.0
28/05:30pm 0.1 -3.7 -0.9 93 0.4 NW 9 11 5 6 1025.9 1027.3 0.0
28/05:00pm 0.1 -4.1 -0.6 95 0.3 NW 11 15 6 8 1025.6 1026.9 0.0
28/04:30pm 1.0 -3.8 0.4 96 0.3 NW 15 19 8 10 1025.2 1026.6 0.0
28/04:00pm 0.1 -4.1 -0.7 94 0.3 NW 11 15 6 8 1025.2 1026.6 0.0
28/03:30pm 2.4 -1.9 1.2 92 0.5 NNW 13 19 7 10 1025.2 1026.6 0.0
28/03:00pm 2.6 -1.7 1.3 91 0.6 NW 13 17 7 9 1025.2 1026.6 0.0
28/02:30pm 1.8 -1.7 1.5 98 0.1 W 9 13 5 7 1025.4 1026.8 0.0
28/02:00pm 2.0 -2.2 1.7 98 0.1 WSW 13 17 7 9 1025.7 1027.1 0.0
28/01:30pm 2.0 -2.2 1.7 98 0.1 W 13 19 7 10 1025.8 1027.2 0.0
28/01:00pm 2.0 -2.2 1.7 98 0.1 W 13 19 7 10 1025.8 1027.2 0.0
28/12:30pm 1.4 -2.9 1.1 98 0.1 WNW 13 17 7 9 1025.9 1027.3 0.0
28/12:00pm 0.7 -2.9 0.4 98 0.1 SW 9 13 5 7 1026.0 1027.4 0.0
28/11:30am 0.6 -3.8 0.3 98 0.1 WSW 13 17 7 9 1026.0 1027.4 0.0
28/11:00am 0.1 -4.4 -0.2 98 0.1 SW 13 17 7 9 1026.0 1027.4 0.0
28/10:30am 0.4 -3.7 0.1 98 0.1 WSW 11 15 6 8 1026.2 1027.6 0.0
28/10:00am -0.5 -4.7 -0.8 98 0.1 SW 11 17 6 9 1026.3 1027.7 0.0
28/09:30am -0.8 -5.8 -1.1 98 0.1 SW 15 19 8 10 1026.3 1027.7 0.0
28/09:00am -1.5 -5.8 -1.8 98 0.0 SSW 11 19 6 10 1026.0 1027.4 0.0
28/08:30am -2.2 -7.4 -2.5 98 0.0 SW 15 22 8 12 1025.9 1027.3 0.0
28/08:00am -2.7 -8.7 -3.0 98 0.0 SW 19 24 10 13 1025.6 1026.9 0.0
28/07:30am -3.4 -9.7 -3.7 98 -0.1 SW 20 28 11 15 1025.4 1026.8 0.0
28/07:00am -4.8 -12.0 -5.1 98 -0.1 SW 24 28 13 15 1025.2 1026.6 0.0
28/06:30am -4.7 -12.2 -5.0 98 -0.1 WSW 26 28 14 15 1024.8 1026.2 0.0
28/06:00am -3.8 -10.5 -4.2 97 0.0 WSW 22 26 12 14 1024.3 1025.7 0.0
28/05:30am -4.9 -12.1 -5.3 97 -0.1 WSW 24 28 13 15 1024.2 1025.5 0.0
28/05:00am -4.9 -11.7 -5.3 97 -0.1 WSW 22 26 12 14 1023.9 1025.2 0.0
28/04:30am -4.5 -10.7 -4.9 97 -0.1 W 19 22 10 12 1023.9 1025.2 0.0
28/04:00am -4.4 -10.6 -4.8 97 -0.1 W 19 24 10 13 1023.7 1025.0 0.0
28/03:30am -3.9 -10.6 -4.3 97 0.0 W 22 30 12 16 1023.6 1024.9 0.0
28/03:00am -3.9 -11.0 -4.3 97 0.0 W 24 26 13 14 1023.5 1024.8 0.0
28/02:30am -4.3 -11.1 -4.7 97 -0.1 WSW 22 26 12 14 1023.5 1024.8 0.0
28/02:00am -4.5 -11.7 -4.9 97 -0.1 WSW 24 28 13 15 1023.5 1024.8 0.0
28/01:30am -4.6 -10.8 -5.0 97 -0.1 W 19 24 10 13 1023.6 1024.9 0.0
28/01:00am -5.2 -10.7 -5.6 97 -0.1 W 15 19 8 10 1023.9 1025.2 0.0
28/12:30am -5.0 -10.9 -5.4 97 -0.1 W 17 20 9 11 1023.7 1025.0 0.0
28/12:00am -5.9 -11.1 -6.3 97 -0.1 W 13 17 7 9 1023.9 1025.2 0.0
 
Date/Time
EST
Temp
°C
App
Temp
°C
Dew
Point
°C
Rel
Hum
%
Delta-T
°C
Wind Press
QNH
hPa
Press
MSL
hPa
Rain since
9am
mm
Dir  Spd
km/h
Gust
km/h
Spd
kts
Gust
kts
27/11:30pm -6.2 -10.7 -6.6 97 -0.1 W 9 13 5 7 1024.1 1025.4 0.0
27/11:00pm -6.0 -10.4 -6.3 98 -0.1 W 9 11 5 6 1024.2 1025.5 0.0
27/10:30pm -6.0 -10.8 -6.3 98 -0.2 W 11 13 6 7 1024.3 1025.7 0.0
27/10:00pm -5.7 -10.1 -6.0 98 -0.1 W 9 15 5 8 1024.2 1025.5 0.0
27/09:30pm -5.3 -10.4 -5.6 98 -0.1 W 13 19 7 10 1024.2 1025.5 0.0
27/09:00pm -4.3 -11.0 -4.6 98 -0.1 W 22 26 12 14 1024.2 1025.5 0.0
27/08:30pm -4.0 -10.3 -4.3 98 -0.1 WNW 20 30 11 16 1023.9 1025.2 0.0
27/08:00pm -3.9 -10.6 -4.2 98 -0.1 WNW 22 33 12 18 1023.6 1024.9 0.0
27/07:30pm -4.3 -11.4 -4.6 98 -0.1 WNW 24 32 13 17 1023.5 1024.8 0.0
27/07:00pm -3.9 -11.4 -4.2 98 -0.1 WNW 26 32 14 17 1023.3 1024.5 0.0
27/06:30pm -3.6 -9.9 -3.9 98 -0.1 WNW 20 28 11 15 1022.9 1024.1 0.0
27/06:00pm -3.8 -10.1 -4.1 98 -0.1 WNW 20 26 11 14 1022.7 1023.9 0.0
27/05:30pm -3.5 -9.6 -3.8 98 -0.1 WNW 19 26 10 14 1022.3 1023.5 0.0
27/05:00pm -2.8 -8.4 -3.1 98 0.0 W 17 26 9 14 1022.0 1023.3 0.0
27/04:30pm -2.5 -8.7 -2.8 98 0.0 W 20 32 11 17 1021.4 1022.6 0.0
27/04:00pm -2.6 -8.8 -2.9 98 0.0 W 20 30 11 16 1021.3 1022.5 0.0
27/03:30pm -2.5 -6.6 -2.8 98 0.0 WNW 9 19 5 10 1021.3 1022.5 0.0
27/03:00pm -2.6 -7.1 -2.9 98 0.0 WNW 11 19 6 10 1021.2 1022.4 0.0
27/02:30pm -2.6 -7.4 -2.9 98 0.0 WNW 13 20 7 11 1021.3 1022.5 0.0
27/02:00pm -2.2 -5.9 -2.5 98 0.0 WNW 7 13 4 7 1021.2 1022.4 0.0
27/01:30pm -3.2 -8.1 -3.5 98 0.0 WSW 13 20 7 11 1021.2 1022.4 0.0
27/01:00pm -3.4 -7.2 -3.7 98 -0.1 SW 7 15 4 8 1021.1 1022.2 0.0
27/12:30pm -3.9 -8.5 -4.2 98 -0.1 WSW 11 15 6 8 1021.0 1022.1 0.0
27/12:00pm -4.3 -9.3 -4.6 98 -0.1 SW 13 19 7 10 1020.7 1021.9 0.0
27/11:30am -4.7 -9.8 -5.0 98 -0.1 SSW 13 19 7 10 1020.6 1021.7 0.0
27/11:00am -4.9 -10.4 -5.2 98 -0.1 SSW 15 22 8 12 1020.5 1021.6 0.0
27/10:30am -4.9 -10.8 -5.2 98 -0.1 SSW 17 24 9 13 1020.2 1021.3 0.0
27/10:00am -4.8 -12.0 -5.1 98 -0.1 SW 24 32 13 17 1019.7 1020.8 0.0
27/09:30am -4.7 -11.1 -5.0 98 -0.1 SSW 20 26 11 14 1019.5 1020.6 0.0
27/09:00am -4.5 -11.3 -4.8 98 -0.1 SW 22 32 12 17 1019.0 1020.1 1.2
27/08:30am -4.6 -11.8 -4.9 98 -0.1 SSW 24 37 13 20 1018.3 1019.3 1.2
27/08:00am -4.7 -11.1 -5.0 98 -0.1 SSW 20 30 11 16 1018.0 1019.1 1.2
27/07:30am -4.5 -11.3 -4.8 98 -0.1 SSW 22 30 12 16 1017.6 1018.6 1.2
27/07:00am -4.4 -12.3 -4.7 98 -0.1 SSW 28 39 15 21 1017.0 1017.9 1.0
27/06:30am -4.1 -11.6 -4.4 98 -0.1 SSW 26 35 14 19 1016.2 1017.2 0.6
27/06:00am -3.9 -11.4 -4.2 98 -0.1 W 26 33 14 18 1015.5 1016.4 0.4
27/05:31am -3.9 -12.1 -4.2 98 -0.1 W 30 48 16 26 1015.0 1015.9 0.2
27/05:30am -4.0 -12.6 -4.3 98 -0.1 W 32 48 17 26 1015.0 1015.9 0.2
27/05:27am -4.0 -12.2 -4.3 98 -0.1 W 30 48 16 26 1014.9 1015.8 0.2
27/05:00am -4.0 -12.2 -4.3 98 -0.1 WSW 30 43 16 23 1014.4 1015.3 0.2
27/04:30am -4.1 -13.7 -4.4 98 -0.1 W 37 50 20 27 - - 0.2
27/04:12am -4.0 -13.6 -4.3 98 -0.1 W 37 56 20 30 - - 0.2
27/04:00am -4.0 -13.2 -4.3 98 -0.1 W 35 52 19 28 - - 0.2
27/03:32am -3.9 -13.8 -4.2 98 -0.1 W 39 57 21 31 - - 0.2
27/03:30am -3.9 -13.8 -4.2 98 -0.1 W 39 50 21 27 - - 0.2
27/03:17am -3.8 -13.7 -4.1 98 -0.1 W 39 61 21 33 - - 0.2
27/03:00am -3.9 -13.5 -4.2 98 -0.1 W 37 52 20 28 - - 0.2
27/02:30am -3.9 -13.1 -4.2 98 -0.1 W 35 48 19 26 - - 0.2
27/02:04am -3.9 -13.5 -4.2 98 -0.1 W 37 59 20 32 - - 0.2
27/02:00am -3.9 -13.1 -4.2 98 -0.1 W 35 52 19 28 - - 0.2
27/01:30am -4.0 -13.9 -4.3 98 -0.1 W 39 54 21 29 - - 0.2
27/01:00am -4.0 -14.7 -4.3 98 -0.1 W 43 56 23 30 - - 0.2
27/12:30am -4.0 -15.3 -4.3 98 -0.1 W 46 69 25 37 - - 0.2
27/12:00am -3.9 -14.2 -4.2 98 -0.1 W 41 63 22 34 - - 0.2
 
Date/Time
EST
Temp
°C
App
Temp
°C
Dew
Point
°C
Rel
Hum
%
Delta-T
°C
Wind Press
QNH
hPa
Press
MSL
hPa
Rain since
9am
mm
Dir  Spd
km/h
Gust
km/h
Spd
kts
Gust
kts
26/11:53pm -3.9 -14.8 -4.2 98 -0.1 W 44 63 24 34 - - 0.2
26/11:30pm -3.9 -15.2 -4.2 98 -0.1 W 46 63 25 34 - - 0.2
26/11:02pm -3.9 -16.7 -4.2 98 -0.1 WNW 54 72 29 39 - - 0.2
26/11:00pm -3.9 -16.7 -4.2 98 -0.1 WNW 54 70 29 38 - - 0.2
26/10:46pm -3.9 -16.3 -4.2 98 -0.1 W 52 70 28 38 - - 0.2
26/10:30pm -4.0 -16.8 -4.3 98 -0.1 W 54 69 29 37 - - 0.2
26/10:01pm -4.1 -16.1 -4.4 98 -0.1 W 50 69 27 37 - - 0.2
26/10:00pm -4.2 -16.6 -4.5 98 -0.1 W 52 69 28 37 - - 0.2
26/09:30pm -4.2 -16.3 -4.5 98 -0.1 WNW 50 69 27 37 - - 0.2
26/09:00pm -4.1 -16.5 -4.4 98 -0.1 W 52 74 28 40 - - 0.2
26/08:30pm -4.0 -16.0 -4.3 98 -0.1 WNW 50 76 27 41 - - 0.2
26/08:00pm -3.9 -15.9 -4.2 98 -0.1 WNW 50 69 27 37 - - 0.2
26/07:40pm -3.8 -15.4 -4.1 98 -0.1 WNW 48 67 26 36 - - 0.2
26/07:30pm -3.8 -16.2 -4.1 98 -0.1 W 52 69 28 37 - - 0.2
26/07:00pm -3.8 -16.2 -4.1 98 -0.1 W 52 72 28 39 - - 0.2
26/06:32pm -3.7 -14.4 -4.0 98 -0.1 WNW 43 61 23 33 - - 0.2
26/06:30pm -3.7 -14.4 -4.0 98 -0.1 WNW 43 59 23 32 - - 0.2
26/06:00pm -3.9 -15.2 -4.2 98 -0.1 WNW 46 61 25 33 - - 0.2
26/05:42pm -3.8 -14.1 -4.1 98 -0.1 WNW 41 59 22 32 - - 0.2
26/05:30pm -3.7 -13.6 -4.0 98 -0.1 WNW 39 56 21 30 - - 0.2
26/05:17pm -3.8 -14.7 -4.1 98 -0.1 WNW 44 61 24 33 - - 0.2
26/05:12pm -3.9 -15.9 -4.2 98 -0.1 WNW 50 69 27 37 - - 0.2
26/05:00pm -3.6 -17.3 -3.9 98 -0.1 WNW 59 74 32 40 - - 0.2
26/04:30pm -3.6 -15.6 -3.9 98 -0.1 WNW 50 70 27 38 - - 0.2
26/04:00pm -3.7 -14.4 -4.0 98 -0.1 WNW 43 61 23 33 - - 0.0
26/03:30pm -3.8 -15.4 -4.1 98 -0.1 WNW 48 69 26 37 - - 0.0

Latest Capital City Observations: Canberra | Sydney | Melbourne | Brisbane | Adelaide | Perth | Hobart | Darwin

Other formats

Comma delimited format used in spreadsheet applications
http://www.bom.gov.au/fwo/IDN60903/IDN60903.95909.axf

JavaScript Object Notation format (JSON) in row-major order
http://www.bom.gov.au/fwo/IDN60903/IDN60903.95909.json

Data quality

Most of these data are generated automatically and are frequently updated. Quality checks on data are not normally performed. It is possible for incorrect values to appear. Refer to information at About Latest Weather Observations and please check the disclaimer before using these data.